Terminal Aerodrome Forecast
Issued by NWS Memphis, TN

Home | Current Version | Previous Version | Text Only | Print | Product List | Glossary On
Versions: 1 2 3 4 5 6 7 8 9 10 11 12 13 14
257
FTUS44 KMEG 260813 AAA
TAFMKL
TAF AMD
KMKL 260813Z 2608/2706 VRB03KT 6SM BR FEW250
      TEMPO 2610/2612 4SM BR
     FM261500 20004KT P6SM SCT030 BKN250
     FM262200 13004KT P6SM VCTS OVC070CB
     FM270000 VRB03KT P6SM OVC250=

USA.gov is the U.S. government's official web portal to all federal, state and local government web resources and services.